sensor_id;sensor_type;location;lat;lon;timestamp;P1;durP1;ratioP1;P2;durP2;ratioP2
4638;SDS011;2332;38.646;-9.154;2023-07-02T00:00:43;12.80;;;5.00;;
4638;SDS011;2332;38.646;-9.154;2023-07-02T00:03:08;14.60;;;4.60;;
4638;SDS011;2332;38.646;-9.154;2023-07-02T00:05:35;13.40;;;4.73;;
4638;SDS011;2332;38.646;-9.154;2023-07-02T00:08:00;16.70;;;5.07;;
4638;SDS011;2332;38.646;-9.154;2023-07-02T00:10:25;13.90;;;4.97;;
4638;SDS011;2332;38.646;-9.154;2023-07-02T00:12:51;10.37;;;4.77;;
4638;SDS011;2332;38.646;-9.154;2023-07-02T00:15:16;12.10;;;4.83;;
4638;SDS011;2332;38.646;-9.154;2023-07-02T00:17:42;11.97;;;4.60;;
4638;SDS011;2332;38.646;-9.154;2023-07-02T00:20:07;8.10;;;4.20;;
4638;SDS011;2332;38.646;-9.154;2023-07-02T00:22:33;10.03;;;4.13;;
4638;SDS011;2332;38.646;-9.154;2023-07-02T00:25:01;12.87;;;4.60;;
4638;SDS011;2332;38.646;-9.154;2023-07-02T00:27:29;7.30;;;4.27;;
4638;SDS011;2332;38.646;-9.154;2023-07-02T00:29:54;9.13;;;4.27;;
4638;SDS011;2332;38.646;-9.154;2023-07-02T00:32:19;12.50;;;4.87;;
4638;SDS011;2332;38.646;-9.154;2023-07-02T00:34:45;9.80;;;4.10;;
4638;SDS011;2332;38.646;-9.154;2023-07-02T00:37:10;13.00;;;4.27;;
4638;SDS011;2332;38.646;-9.154;2023-07-02T00:39:36;7.53;;;4.03;;
4638;SDS011;2332;38.646;-9.154;2023-07-02T00:42:02;8.37;;;3.93;;
4638;SDS011;2332;38.646;-9.154;2023-07-02T00:44:30;10.97;;;4.67;;
4638;SDS011;2332;38.646;-9.154;2023-07-02T00:46:55;8.50;;;4.27;;
4638;SDS011;2332;38.646;-9.154;2023-07-02T00:49:21;12.17;;;5.20;;
4638;SDS011;2332;38.646;-9.154;2023-07-02T00:51:46;12.07;;;4.13;;
4638;SDS011;2332;38.646;-9.154;2023-07-02T00:54:11;12.07;;;5.17;;
4638;SDS011;2332;38.646;-9.154;2023-07-02T00:56:37;7.50;;;4.10;;
4638;SDS011;2332;38.646;-9.154;2023-07-02T00:59:02;14.03;;;4.60;;
4638;SDS011;2332;38.646;-9.154;2023-07-02T01:01:28;10.23;;;4.60;;
4638;SDS011;2332;38.646;-9.154;2023-07-02T01:04:03;11.57;;;5.50;;
4638;SDS011;2332;38.646;-9.154;2023-07-02T01:06:35;13.53;;;5.17;;
4638;SDS011;2332;38.646;-9.154;2023-07-02T01:09:01;11.87;;;4.33;;
4638;SDS011;2332;38.646;-9.154;2023-07-02T01:11:49;9.33;;;3.90;;
4638;SDS011;2332;38.646;-9.154;2023-07-02T01:16:42;9.80;;;4.10;;
4638;SDS011;2332;38.646;-9.154;2023-07-02T01:19:12;8.13;;;4.13;;
4638;SDS011;2332;38.646;-9.154;2023-07-02T01:21:38;14.17;;;5.07;;
4638;SDS011;2332;38.646;-9.154;2023-07-02T01:24:04;9.37;;;4.03;;
4638;SDS011;2332;38.646;-9.154;2023-07-02T01:26:30;8.20;;;3.90;;
4638;SDS011;2332;38.646;-9.154;2023-07-02T01:28:59;13.47;;;5.03;;
4638;SDS011;2332;38.646;-9.154;2023-07-02T01:31:24;11.13;;;5.87;;
4638;SDS011;2332;38.646;-9.154;2023-07-02T01:33:50;16.90;;;6.40;;
4638;SDS011;2332;38.646;-9.154;2023-07-02T01:36:16;15.33;;;5.90;;
4638;SDS011;2332;38.646;-9.154;2023-07-02T01:38:41;14.87;;;5.53;;
4638;SDS011;2332;38.646;-9.154;2023-07-02T01:41:07;17.07;;;5.70;;
4638;SDS011;2332;38.646;-9.154;2023-07-02T01:43:32;17.97;;;6.40;;
4638;SDS011;2332;38.646;-9.154;2023-07-02T01:45:57;21.57;;;6.70;;
4638;SDS011;2332;38.646;-9.154;2023-07-02T01:48:24;17.40;;;5.70;;
4638;SDS011;2332;38.646;-9.154;2023-07-02T01:50:49;17.63;;;4.80;;
4638;SDS011;2332;38.646;-9.154;2023-07-02T01:53:15;30.30;;;7.30;;
4638;SDS011;2332;38.646;-9.154;2023-07-02T01:55:40;20.23;;;6.67;;
4638;SDS011;2332;38.646;-9.154;2023-07-02T01:58:05;14.70;;;5.93;;
4638;SDS011;2332;38.646;-9.154;2023-07-02T02:00:32;21.53;;;6.90;;
4638;SDS011;2332;38.646;-9.154;2023-07-02T02:02:57;22.43;;;6.20;;
4638;SDS011;2332;38.646;-9.154;2023-07-02T02:05:23;24.73;;;6.30;;
4638;SDS011;2332;38.646;-9.154;2023-07-02T02:07:48;20.70;;;6.03;;
4638;SDS011;2332;38.646;-9.154;2023-07-02T02:10:13;16.67;;;5.70;;
4638;SDS011;2332;38.646;-9.154;2023-07-02T02:12:39;14.73;;;5.03;;
4638;SDS011;2332;38.646;-9.154;2023-07-02T02:15:05;13.33;;;5.00;;
4638;SDS011;2332;38.646;-9.154;2023-07-02T02:17:31;18.93;;;5.80;;
4638;SDS011;2332;38.646;-9.154;2023-07-02T02:19:57;17.30;;;5.50;;
4638;SDS011;2332;38.646;-9.154;2023-07-02T02:22:22;14.13;;;5.50;;
4638;SDS011;2332;38.646;-9.154;2023-07-02T02:24:47;16.20;;;6.13;;
4638;SDS011;2332;38.646;-9.154;2023-07-02T02:27:13;16.97;;;5.60;;
4638;SDS011;2332;38.646;-9.154;2023-07-02T02:29:38;14.87;;;5.30;;
4638;SDS011;2332;38.646;-9.154;2023-07-02T02:32:04;13.43;;;5.27;;
4638;SDS011;2332;38.646;-9.154;2023-07-02T02:34:29;14.70;;;5.17;;
4638;SDS011;2332;38.646;-9.154;2023-07-02T02:36:54;15.37;;;5.73;;
4638;SDS011;2332;38.646;-9.154;2023-07-02T02:39:20;18.63;;;5.47;;
4638;SDS011;2332;38.646;-9.154;2023-07-02T02:41:45;13.93;;;5.97;;
4638;SDS011;2332;38.646;-9.154;2023-07-02T02:44:11;15.83;;;5.80;;
4638;SDS011;2332;38.646;-9.154;2023-07-02T02:46:36;18.27;;;6.53;;
4638;SDS011;2332;38.646;-9.154;2023-07-02T02:49:02;15.50;;;5.77;;
4638;SDS011;2332;38.646;-9.154;2023-07-02T02:51:27;15.10;;;6.67;;
4638;SDS011;2332;38.646;-9.154;2023-07-02T02:53:52;25.77;;;6.93;;
4638;SDS011;2332;38.646;-9.154;2023-07-02T02:56:18;13.97;;;5.90;;
4638;SDS011;2332;38.646;-9.154;2023-07-02T02:58:43;20.20;;;6.80;;
4638;SDS011;2332;38.646;-9.154;2023-07-02T03:01:09;20.03;;;6.27;;
4638;SDS011;2332;38.646;-9.154;2023-07-02T03:03:37;13.50;;;5.23;;
4638;SDS011;2332;38.646;-9.154;2023-07-02T03:06:04;15.17;;;5.40;;
4638;SDS011;2332;38.646;-9.154;2023-07-02T03:08:29;19.37;;;6.33;;
4638;SDS011;2332;38.646;-9.154;2023-07-02T03:10:54;18.10;;;6.83;;
4638;SDS011;2332;38.646;-9.154;2023-07-02T03:13:20;15.97;;;6.10;;
4638;SDS011;2332;38.646;-9.154;2023-07-02T03:15:45;20.03;;;7.30;;
4638;SDS011;2332;38.646;-9.154;2023-07-02T03:18:11;21.43;;;6.70;;
4638;SDS011;2332;38.646;-9.154;2023-07-02T03:20:36;17.93;;;6.20;;
4638;SDS011;2332;38.646;-9.154;2023-07-02T03:23:01;19.50;;;5.83;;
4638;SDS011;2332;38.646;-9.154;2023-07-02T03:25:27;11.97;;;5.63;;
4638;SDS011;2332;38.646;-9.154;2023-07-02T03:27:52;18.03;;;6.47;;
4638;SDS011;2332;38.646;-9.154;2023-07-02T03:30:17;17.73;;;6.13;;
4638;SDS011;2332;38.646;-9.154;2023-07-02T03:32:43;18.23;;;7.53;;
4638;SDS011;2332;38.646;-9.154;2023-07-02T03:35:08;18.47;;;7.73;;
4638;SDS011;2332;38.646;-9.154;2023-07-02T03:37:33;24.57;;;7.00;;
4638;SDS011;2332;38.646;-9.154;2023-07-02T03:39:59;21.43;;;6.27;;
4638;SDS011;2332;38.646;-9.154;2023-07-02T03:42:24;16.10;;;6.93;;
4638;SDS011;2332;38.646;-9.154;2023-07-02T03:44:50;23.63;;;7.17;;
4638;SDS011;2332;38.646;-9.154;2023-07-02T03:47:15;16.13;;;6.57;;
4638;SDS011;2332;38.646;-9.154;2023-07-02T03:49:41;24.60;;;7.07;;
4638;SDS011;2332;38.646;-9.154;2023-07-02T03:52:07;15.87;;;6.20;;
4638;SDS011;2332;38.646;-9.154;2023-07-02T03:54:32;19.30;;;6.90;;
4638;SDS011;2332;38.646;-9.154;2023-07-02T03:56:57;16.13;;;5.83;;
4638;SDS011;2332;38.646;-9.154;2023-07-02T03:59:23;13.97;;;7.10;;
4638;SDS011;2332;38.646;-9.154;2023-07-02T04:01:48;17.60;;;6.70;;
4638;SDS011;2332;38.646;-9.154;2023-07-02T04:04:16;18.90;;;7.17;;
4638;SDS011;2332;38.646;-9.154;2023-07-02T04:06:41;17.13;;;6.80;;
4638;SDS011;2332;38.646;-9.154;2023-07-02T04:09:07;14.80;;;6.50;;
4638;SDS011;2332;38.646;-9.154;2023-07-02T04:11:32;16.17;;;6.67;;
4638;SDS011;2332;38.646;-9.154;2023-07-02T04:13:57;21.70;;;7.93;;
4638;SDS011;2332;38.646;-9.154;2023-07-02T04:16:23;20.27;;;7.20;;
4638;SDS011;2332;38.646;-9.154;2023-07-02T04:18:48;24.33;;;8.03;;
4638;SDS011;2332;38.646;-9.154;2023-07-02T04:21:14;15.93;;;6.70;;
4638;SDS011;2332;38.646;-9.154;2023-07-02T04:23:39;20.27;;;6.63;;
4638;SDS011;2332;38.646;-9.154;2023-07-02T04:26:04;22.00;;;7.13;;
4638;SDS011;2332;38.646;-9.154;2023-07-02T04:28:31;16.13;;;6.60;;
4638;SDS011;2332;38.646;-9.154;2023-07-02T04:30:56;17.60;;;7.80;;
4638;SDS011;2332;38.646;-9.154;2023-07-02T04:33:22;13.03;;;6.53;;
4638;SDS011;2332;38.646;-9.154;2023-07-02T04:35:47;22.50;;;7.40;;
4638;SDS011;2332;38.646;-9.154;2023-07-02T04:38:12;22.37;;;7.40;;
4638;SDS011;2332;38.646;-9.154;2023-07-02T04:40:38;15.43;;;6.70;;
4638;SDS011;2332;38.646;-9.154;2023-07-02T04:43:03;18.00;;;6.80;;
4638;SDS011;2332;38.646;-9.154;2023-07-02T04:45:30;16.37;;;7.57;;
4638;SDS011;2332;38.646;-9.154;2023-07-02T04:47:58;16.50;;;7.20;;
4638;SDS011;2332;38.646;-9.154;2023-07-02T04:50:26;16.53;;;7.17;;
4638;SDS011;2332;38.646;-9.154;2023-07-02T04:52:51;14.30;;;6.43;;
4638;SDS011;2332;38.646;-9.154;2023-07-02T04:55:16;15.60;;;6.57;;
4638;SDS011;2332;38.646;-9.154;2023-07-02T04:57:42;16.73;;;6.43;;
4638;SDS011;2332;38.646;-9.154;2023-07-02T05:00:09;21.80;;;6.90;;
4638;SDS011;2332;38.646;-9.154;2023-07-02T05:02:34;21.27;;;7.40;;
4638;SDS011;2332;38.646;-9.154;2023-07-02T05:05:00;20.77;;;7.80;;
4638;SDS011;2332;38.646;-9.154;2023-07-02T05:07:25;18.37;;;8.23;;
4638;SDS011;2332;38.646;-9.154;2023-07-02T05:09:51;23.23;;;8.03;;
4638;SDS011;2332;38.646;-9.154;2023-07-02T05:12:18;15.13;;;6.67;;
4638;SDS011;2332;38.646;-9.154;2023-07-02T05:14:44;20.97;;;7.33;;
4638;SDS011;2332;38.646;-9.154;2023-07-02T05:17:09;14.70;;;7.10;;
4638;SDS011;2332;38.646;-9.154;2023-07-02T05:19:34;14.30;;;7.00;;
4638;SDS011;2332;38.646;-9.154;2023-07-02T05:22:00;17.87;;;6.80;;
4638;SDS011;2332;38.646;-9.154;2023-07-02T05:24:25;20.77;;;7.60;;
4638;SDS011;2332;38.646;-9.154;2023-07-02T05:26:50;22.97;;;7.13;;
4638;SDS011;2332;38.646;-9.154;2023-07-02T05:29:16;18.33;;;7.00;;
4638;SDS011;2332;38.646;-9.154;2023-07-02T05:31:42;14.13;;;6.77;;
4638;SDS011;2332;38.646;-9.154;2023-07-02T05:34:07;17.27;;;6.90;;
4638;SDS011;2332;38.646;-9.154;2023-07-02T05:36:33;14.33;;;7.00;;
4638;SDS011;2332;38.646;-9.154;2023-07-02T05:38:59;12.43;;;6.30;;
4638;SDS011;2332;38.646;-9.154;2023-07-02T05:41:25;18.33;;;6.77;;
4638;SDS011;2332;38.646;-9.154;2023-07-02T05:43:55;15.90;;;6.83;;
4638;SDS011;2332;38.646;-9.154;2023-07-02T05:46:20;14.90;;;6.07;;
4638;SDS011;2332;38.646;-9.154;2023-07-02T05:48:46;14.07;;;6.93;;
4638;SDS011;2332;38.646;-9.154;2023-07-02T05:51:11;20.33;;;7.90;;
4638;SDS011;2332;38.646;-9.154;2023-07-02T05:53:37;15.63;;;6.50;;
4638;SDS011;2332;38.646;-9.154;2023-07-02T05:56:02;17.27;;;7.77;;
4638;SDS011;2332;38.646;-9.154;2023-07-02T05:58:28;21.47;;;7.40;;
4638;SDS011;2332;38.646;-9.154;2023-07-02T06:00:55;17.63;;;7.90;;
4638;SDS011;2332;38.646;-9.154;2023-07-02T06:03:20;18.03;;;7.20;;
4638;SDS011;2332;38.646;-9.154;2023-07-02T06:05:46;20.10;;;7.40;;
4638;SDS011;2332;38.646;-9.154;2023-07-02T06:08:12;23.80;;;7.87;;
4638;SDS011;2332;38.646;-9.154;2023-07-02T06:10:37;18.70;;;8.00;;
4638;SDS011;2332;38.646;-9.154;2023-07-02T06:13:03;18.10;;;6.93;;
4638;SDS011;2332;38.646;-9.154;2023-07-02T06:15:28;20.23;;;7.47;;
4638;SDS011;2332;38.646;-9.154;2023-07-02T06:17:53;18.30;;;7.93;;
4638;SDS011;2332;38.646;-9.154;2023-07-02T06:20:19;18.30;;;7.77;;
4638;SDS011;2332;38.646;-9.154;2023-07-02T06:22:44;18.37;;;7.10;;
4638;SDS011;2332;38.646;-9.154;2023-07-02T06:25:10;16.87;;;7.13;;
4638;SDS011;2332;38.646;-9.154;2023-07-02T06:27:35;16.97;;;6.83;;
4638;SDS011;2332;38.646;-9.154;2023-07-02T06:30:00;14.50;;;6.27;;
4638;SDS011;2332;38.646;-9.154;2023-07-02T06:32:26;13.67;;;6.30;;
4638;SDS011;2332;38.646;-9.154;2023-07-02T06:34:51;13.90;;;6.27;;
4638;SDS011;2332;38.646;-9.154;2023-07-02T06:37:17;13.97;;;6.20;;
4638;SDS011;2332;38.646;-9.154;2023-07-02T06:39:42;13.20;;;5.53;;
4638;SDS011;2332;38.646;-9.154;2023-07-02T06:42:07;16.10;;;6.83;;
4638;SDS011;2332;38.646;-9.154;2023-07-02T06:44:33;11.37;;;6.00;;
4638;SDS011;2332;38.646;-9.154;2023-07-02T06:46:58;12.63;;;5.63;;
4638;SDS011;2332;38.646;-9.154;2023-07-02T06:49:24;16.87;;;6.67;;
4638;SDS011;2332;38.646;-9.154;2023-07-02T06:51:49;11.60;;;5.80;;
4638;SDS011;2332;38.646;-9.154;2023-07-02T06:54:14;14.23;;;5.90;;
4638;SDS011;2332;38.646;-9.154;2023-07-02T06:56:40;12.37;;;6.50;;
4638;SDS011;2332;38.646;-9.154;2023-07-02T06:59:05;11.00;;;6.03;;
4638;SDS011;2332;38.646;-9.154;2023-07-02T07:01:31;13.83;;;5.77;;
4638;SDS011;2332;38.646;-9.154;2023-07-02T07:03:56;12.73;;;5.77;;
4638;SDS011;2332;38.646;-9.154;2023-07-02T07:06:21;11.13;;;5.40;;
4638;SDS011;2332;38.646;-9.154;2023-07-02T07:08:47;11.90;;;6.27;;
4638;SDS011;2332;38.646;-9.154;2023-07-02T07:11:12;8.50;;;5.40;;
4638;SDS011;2332;38.646;-9.154;2023-07-02T07:13:38;13.00;;;5.83;;
4638;SDS011;2332;38.646;-9.154;2023-07-02T07:16:06;12.77;;;6.20;;
4638;SDS011;2332;38.646;-9.154;2023-07-02T07:18:31;15.10;;;6.53;;
4638;SDS011;2332;38.646;-9.154;2023-07-02T07:20:57;13.33;;;5.87;;
4638;SDS011;2332;38.646;-9.154;2023-07-02T07:23:22;12.00;;;6.30;;
4638;SDS011;2332;38.646;-9.154;2023-07-02T07:25:47;10.40;;;6.37;;
4638;SDS011;2332;38.646;-9.154;2023-07-02T07:28:13;11.23;;;5.60;;
4638;SDS011;2332;38.646;-9.154;2023-07-02T07:30:42;11.63;;;6.40;;
4638;SDS011;2332;38.646;-9.154;2023-07-02T07:33:08;7.50;;;5.20;;
4638;SDS011;2332;38.646;-9.154;2023-07-02T07:35:33;15.97;;;6.10;;
4638;SDS011;2332;38.646;-9.154;2023-07-02T07:37:58;11.83;;;5.50;;
4638;SDS011;2332;38.646;-9.154;2023-07-02T07:40:24;12.33;;;6.00;;
4638;SDS011;2332;38.646;-9.154;2023-07-02T07:42:49;14.57;;;5.70;;
4638;SDS011;2332;38.646;-9.154;2023-07-02T07:45:14;12.73;;;6.50;;
4638;SDS011;2332;38.646;-9.154;2023-07-02T07:47:40;12.13;;;7.00;;
4638;SDS011;2332;38.646;-9.154;2023-07-02T07:50:06;11.37;;;5.80;;
4638;SDS011;2332;38.646;-9.154;2023-07-02T07:52:38;13.37;;;5.97;;
4638;SDS011;2332;38.646;-9.154;2023-07-02T07:55:04;12.17;;;5.80;;
4638;SDS011;2332;38.646;-9.154;2023-07-02T07:57:29;12.57;;;5.50;;
4638;SDS011;2332;38.646;-9.154;2023-07-02T07:59:55;9.80;;;6.00;;
4638;SDS011;2332;38.646;-9.154;2023-07-02T08:02:20;18.97;;;10.17;;
4638;SDS011;2332;38.646;-9.154;2023-07-02T08:04:48;11.53;;;6.17;;
4638;SDS011;2332;38.646;-9.154;2023-07-02T08:07:13;15.93;;;6.27;;
4638;SDS011;2332;38.646;-9.154;2023-07-02T08:09:38;15.73;;;7.53;;
4638;SDS011;2332;38.646;-9.154;2023-07-02T08:12:04;19.17;;;6.93;;
4638;SDS011;2332;38.646;-9.154;2023-07-02T08:14:29;18.27;;;7.33;;
4638;SDS011;2332;38.646;-9.154;2023-07-02T08:16:55;14.80;;;6.83;;
4638;SDS011;2332;38.646;-9.154;2023-07-02T08:19:20;15.40;;;6.50;;
4638;SDS011;2332;38.646;-9.154;2023-07-02T08:21:49;15.67;;;6.50;;
4638;SDS011;2332;38.646;-9.154;2023-07-02T08:24:15;12.43;;;5.97;;
4638;SDS011;2332;38.646;-9.154;2023-07-02T08:26:40;10.50;;;5.90;;
4638;SDS011;2332;38.646;-9.154;2023-07-02T08:29:05;13.20;;;6.00;;
4638;SDS011;2332;38.646;-9.154;2023-07-02T08:31:31;13.63;;;6.10;;
4638;SDS011;2332;38.646;-9.154;2023-07-02T08:33:57;15.00;;;6.10;;
4638;SDS011;2332;38.646;-9.154;2023-07-02T08:36:22;10.30;;;6.30;;
4638;SDS011;2332;38.646;-9.154;2023-07-02T08:38:47;9.70;;;6.10;;
4638;SDS011;2332;38.646;-9.154;2023-07-02T08:41:13;14.23;;;7.20;;
4638;SDS011;2332;38.646;-9.154;2023-07-02T08:43:38;20.47;;;6.93;;
4638;SDS011;2332;38.646;-9.154;2023-07-02T08:46:04;11.93;;;6.73;;
4638;SDS011;2332;38.646;-9.154;2023-07-02T08:48:32;12.93;;;6.93;;
4638;SDS011;2332;38.646;-9.154;2023-07-02T08:50:57;22.17;;;7.63;;
4638;SDS011;2332;38.646;-9.154;2023-07-02T08:53:23;16.33;;;6.70;;
4638;SDS011;2332;38.646;-9.154;2023-07-02T08:55:57;12.97;;;6.83;;
4638;SDS011;2332;38.646;-9.154;2023-07-02T08:58:23;15.67;;;7.50;;
4638;SDS011;2332;38.646;-9.154;2023-07-02T09:03:49;16.13;;;6.80;;
4638;SDS011;2332;38.646;-9.154;2023-07-02T09:06:17;11.10;;;6.70;;
4638;SDS011;2332;38.646;-9.154;2023-07-02T09:08:42;12.97;;;7.00;;
4638;SDS011;2332;38.646;-9.154;2023-07-02T09:11:11;10.77;;;6.20;;
4638;SDS011;2332;38.646;-9.154;2023-07-02T09:13:50;14.77;;;6.50;;
4638;SDS011;2332;38.646;-9.154;2023-07-02T09:16:20;10.17;;;6.17;;
4638;SDS011;2332;38.646;-9.154;2023-07-02T09:18:54;16.53;;;7.90;;
4638;SDS011;2332;38.646;-9.154;2023-07-02T09:21:20;12.30;;;5.70;;
4638;SDS011;2332;38.646;-9.154;2023-07-02T09:23:45;15.10;;;6.77;;
4638;SDS011;2332;38.646;-9.154;2023-07-02T09:26:18;12.90;;;5.80;;
4638;SDS011;2332;38.646;-9.154;2023-07-02T09:28:44;13.67;;;5.97;;
4638;SDS011;2332;38.646;-9.154;2023-07-02T09:31:09;12.37;;;6.20;;
4638;SDS011;2332;38.646;-9.154;2023-07-02T09:33:35;14.70;;;6.70;;
4638;SDS011;2332;38.646;-9.154;2023-07-02T09:36:00;12.23;;;6.30;;
4638;SDS011;2332;38.646;-9.154;2023-07-02T09:38:25;13.27;;;7.10;;
4638;SDS011;2332;38.646;-9.154;2023-07-02T09:40:51;33.23;;;6.97;;
4638;SDS011;2332;38.646;-9.154;2023-07-02T09:43:17;15.20;;;7.13;;
4638;SDS011;2332;38.646;-9.154;2023-07-02T09:45:44;14.20;;;6.40;;
4638;SDS011;2332;38.646;-9.154;2023-07-02T09:48:12;11.83;;;6.90;;
4638;SDS011;2332;38.646;-9.154;2023-07-02T09:50:38;7.80;;;6.00;;
4638;SDS011;2332;38.646;-9.154;2023-07-02T09:53:05;10.93;;;6.93;;
4638;SDS011;2332;38.646;-9.154;2023-07-02T09:55:30;10.33;;;6.60;;
4638;SDS011;2332;38.646;-9.154;2023-07-02T09:57:57;13.47;;;6.70;;
4638;SDS011;2332;38.646;-9.154;2023-07-02T10:00:22;13.40;;;7.50;;
4638;SDS011;2332;38.646;-9.154;2023-07-02T10:02:50;11.13;;;7.23;;
4638;SDS011;2332;38.646;-9.154;2023-07-02T10:07:51;12.57;;;6.87;;
4638;SDS011;2332;38.646;-9.154;2023-07-02T10:10:26;12.10;;;6.60;;
4638;SDS011;2332;38.646;-9.154;2023-07-02T10:12:52;14.40;;;6.50;;
4638;SDS011;2332;38.646;-9.154;2023-07-02T10:15:27;10.47;;;6.60;;
4638;SDS011;2332;38.646;-9.154;2023-07-02T10:17:56;51.13;;;8.53;;
4638;SDS011;2332;38.646;-9.154;2023-07-02T10:20:38;17.20;;;7.87;;
4638;SDS011;2332;38.646;-9.154;2023-07-02T10:23:05;15.37;;;6.57;;
4638;SDS011;2332;38.646;-9.154;2023-07-02T10:25:31;18.17;;;6.83;;
4638;SDS011;2332;38.646;-9.154;2023-07-02T10:27:57;11.40;;;6.80;;
4638;SDS011;2332;38.646;-9.154;2023-07-02T10:30:34;13.30;;;6.97;;
4638;SDS011;2332;38.646;-9.154;2023-07-02T10:33:09;18.73;;;7.07;;
4638;SDS011;2332;38.646;-9.154;2023-07-02T10:35:35;12.87;;;6.57;;
4638;SDS011;2332;38.646;-9.154;2023-07-02T10:38:00;17.13;;;7.20;;
4638;SDS011;2332;38.646;-9.154;2023-07-02T10:40:26;12.20;;;6.03;;
4638;SDS011;2332;38.646;-9.154;2023-07-02T10:42:52;13.73;;;7.27;;
4638;SDS011;2332;38.646;-9.154;2023-07-02T10:45:17;13.17;;;6.50;;
4638;SDS011;2332;38.646;-9.154;2023-07-02T10:47:43;20.53;;;7.20;;
4638;SDS011;2332;38.646;-9.154;2023-07-02T10:50:15;17.57;;;7.27;;
4638;SDS011;2332;38.646;-9.154;2023-07-02T10:52:41;18.70;;;7.47;;
4638;SDS011;2332;38.646;-9.154;2023-07-02T10:55:06;11.70;;;6.20;;
4638;SDS011;2332;38.646;-9.154;2023-07-02T10:57:32;12.67;;;6.20;;
4638;SDS011;2332;38.646;-9.154;2023-07-02T11:00:04;16.77;;;7.50;;
4638;SDS011;2332;38.646;-9.154;2023-07-02T11:02:37;11.13;;;6.40;;
4638;SDS011;2332;38.646;-9.154;2023-07-02T11:05:02;12.73;;;7.10;;
4638;SDS011;2332;38.646;-9.154;2023-07-02T11:07:28;10.17;;;6.50;;
4638;SDS011;2332;38.646;-9.154;2023-07-02T11:09:54;13.60;;;5.90;;
4638;SDS011;2332;38.646;-9.154;2023-07-02T11:12:27;13.80;;;6.27;;
4638;SDS011;2332;38.646;-9.154;2023-07-02T11:14:52;14.87;;;7.37;;
4638;SDS011;2332;38.646;-9.154;2023-07-02T11:17:24;12.93;;;6.00;;
4638;SDS011;2332;38.646;-9.154;2023-07-02T11:19:50;10.90;;;6.10;;
4638;SDS011;2332;38.646;-9.154;2023-07-02T11:22:15;7.57;;;4.90;;
4638;SDS011;2332;38.646;-9.154;2023-07-02T11:24:40;13.60;;;6.27;;
4638;SDS011;2332;38.646;-9.154;2023-07-02T11:27:06;8.47;;;6.10;;
4638;SDS011;2332;38.646;-9.154;2023-07-02T11:29:32;23.37;;;5.77;;
4638;SDS011;2332;38.646;-9.154;2023-07-02T11:32:07;12.50;;;6.90;;
4638;SDS011;2332;38.646;-9.154;2023-07-02T11:34:34;17.80;;;6.60;;
4638;SDS011;2332;38.646;-9.154;2023-07-02T11:36:59;11.17;;;6.23;;
4638;SDS011;2332;38.646;-9.154;2023-07-02T11:39:25;19.60;;;7.30;;
4638;SDS011;2332;38.646;-9.154;2023-07-02T11:41:50;18.90;;;8.00;;
4638;SDS011;2332;38.646;-9.154;2023-07-02T11:44:16;25.60;;;9.10;;
4638;SDS011;2332;38.646;-9.154;2023-07-02T11:46:42;20.43;;;8.20;;
4638;SDS011;2332;38.646;-9.154;2023-07-02T11:49:07;21.43;;;8.50;;
4638;SDS011;2332;38.646;-9.154;2023-07-02T11:51:34;19.47;;;8.50;;
4638;SDS011;2332;38.646;-9.154;2023-07-02T11:54:00;15.63;;;8.30;;
4638;SDS011;2332;38.646;-9.154;2023-07-02T11:56:25;22.03;;;7.90;;
4638;SDS011;2332;38.646;-9.154;2023-07-02T11:58:51;19.20;;;7.67;;
4638;SDS011;2332;38.646;-9.154;2023-07-02T12:01:16;20.73;;;8.03;;
4638;SDS011;2332;38.646;-9.154;2023-07-02T12:03:41;16.60;;;7.40;;
4638;SDS011;2332;38.646;-9.154;2023-07-02T12:06:07;21.90;;;7.87;;
4638;SDS011;2332;38.646;-9.154;2023-07-02T12:08:32;15.40;;;6.60;;
4638;SDS011;2332;38.646;-9.154;2023-07-02T12:10:58;21.73;;;8.70;;
4638;SDS011;2332;38.646;-9.154;2023-07-02T12:13:23;19.67;;;7.80;;
4638;SDS011;2332;38.646;-9.154;2023-07-02T12:15:48;22.50;;;9.83;;
4638;SDS011;2332;38.646;-9.154;2023-07-02T12:18:16;24.30;;;10.47;;
4638;SDS011;2332;38.646;-9.154;2023-07-02T12:20:41;20.40;;;8.67;;
4638;SDS011;2332;38.646;-9.154;2023-07-02T12:23:07;22.10;;;9.20;;
4638;SDS011;2332;38.646;-9.154;2023-07-02T12:25:32;20.53;;;8.13;;
4638;SDS011;2332;38.646;-9.154;2023-07-02T12:27:58;20.53;;;10.10;;
4638;SDS011;2332;38.646;-9.154;2023-07-02T12:30:23;17.00;;;8.63;;
4638;SDS011;2332;38.646;-9.154;2023-07-02T12:32:48;21.17;;;9.37;;
4638;SDS011;2332;38.646;-9.154;2023-07-02T12:35:14;18.70;;;8.27;;
4638;SDS011;2332;38.646;-9.154;2023-07-02T12:37:43;19.90;;;8.80;;
4638;SDS011;2332;38.646;-9.154;2023-07-02T12:40:09;26.40;;;9.77;;
4638;SDS011;2332;38.646;-9.154;2023-07-02T12:42:35;21.57;;;9.10;;
4638;SDS011;2332;38.646;-9.154;2023-07-02T12:45:00;18.50;;;9.10;;
4638;SDS011;2332;38.646;-9.154;2023-07-02T12:47:25;20.77;;;8.57;;
4638;SDS011;2332;38.646;-9.154;2023-07-02T12:49:51;25.77;;;8.50;;
4638;SDS011;2332;38.646;-9.154;2023-07-02T12:52:16;18.43;;;7.57;;
4638;SDS011;2332;38.646;-9.154;2023-07-02T12:54:42;16.37;;;7.33;;
4638;SDS011;2332;38.646;-9.154;2023-07-02T12:57:07;21.10;;;8.03;;
4638;SDS011;2332;38.646;-9.154;2023-07-02T12:59:32;18.00;;;7.40;;
4638;SDS011;2332;38.646;-9.154;2023-07-02T13:01:58;20.20;;;8.60;;
4638;SDS011;2332;38.646;-9.154;2023-07-02T13:04:23;23.40;;;8.23;;
4638;SDS011;2332;38.646;-9.154;2023-07-02T13:06:48;16.93;;;7.17;;
4638;SDS011;2332;38.646;-9.154;2023-07-02T13:09:14;21.23;;;7.97;;
4638;SDS011;2332;38.646;-9.154;2023-07-02T13:11:39;22.30;;;7.60;;
4638;SDS011;2332;38.646;-9.154;2023-07-02T13:14:05;17.13;;;7.63;;
4638;SDS011;2332;38.646;-9.154;2023-07-02T13:16:30;14.23;;;6.87;;
4638;SDS011;2332;38.646;-9.154;2023-07-02T13:18:56;13.27;;;6.70;;
4638;SDS011;2332;38.646;-9.154;2023-07-02T13:21:21;17.70;;;7.47;;
4638;SDS011;2332;38.646;-9.154;2023-07-02T13:23:47;22.63;;;9.70;;
4638;SDS011;2332;38.646;-9.154;2023-07-02T13:26:12;17.57;;;6.63;;
4638;SDS011;2332;38.646;-9.154;2023-07-02T13:28:38;19.20;;;7.13;;
4638;SDS011;2332;38.646;-9.154;2023-07-02T13:31:03;19.27;;;7.17;;
4638;SDS011;2332;38.646;-9.154;2023-07-02T13:33:29;24.87;;;11.30;;
4638;SDS011;2332;38.646;-9.154;2023-07-02T13:35:56;17.87;;;6.20;;
4638;SDS011;2332;38.646;-9.154;2023-07-02T13:38:21;15.90;;;6.53;;
4638;SDS011;2332;38.646;-9.154;2023-07-02T13:40:47;13.20;;;5.93;;
4638;SDS011;2332;38.646;-9.154;2023-07-02T13:43:12;26.13;;;6.10;;
4638;SDS011;2332;38.646;-9.154;2023-07-02T13:45:37;15.80;;;6.30;;
4638;SDS011;2332;38.646;-9.154;2023-07-02T13:48:03;19.87;;;6.83;;
4638;SDS011;2332;38.646;-9.154;2023-07-02T13:50:30;13.10;;;6.27;;
4638;SDS011;2332;38.646;-9.154;2023-07-02T13:52:55;13.77;;;6.73;;
4638;SDS011;2332;38.646;-9.154;2023-07-02T13:55:21;16.93;;;6.43;;
4638;SDS011;2332;38.646;-9.154;2023-07-02T13:57:51;13.40;;;5.73;;
4638;SDS011;2332;38.646;-9.154;2023-07-02T14:00:17;14.03;;;6.40;;
4638;SDS011;2332;38.646;-9.154;2023-07-02T14:02:42;10.63;;;5.10;;
4638;SDS011;2332;38.646;-9.154;2023-07-02T14:05:07;20.50;;;6.33;;
4638;SDS011;2332;38.646;-9.154;2023-07-02T14:07:33;12.90;;;5.60;;
4638;SDS011;2332;38.646;-9.154;2023-07-02T14:09:58;10.40;;;5.27;;
4638;SDS011;2332;38.646;-9.154;2023-07-02T14:12:24;14.87;;;6.80;;
4638;SDS011;2332;38.646;-9.154;2023-07-02T14:14:49;12.70;;;5.83;;
4638;SDS011;2332;38.646;-9.154;2023-07-02T14:17:14;16.53;;;5.67;;
4638;SDS011;2332;38.646;-9.154;2023-07-02T14:19:40;13.50;;;5.50;;
4638;SDS011;2332;38.646;-9.154;2023-07-02T14:22:05;14.70;;;5.53;;
4638;SDS011;2332;38.646;-9.154;2023-07-02T14:24:31;17.93;;;5.30;;
4638;SDS011;2332;38.646;-9.154;2023-07-02T14:26:56;14.80;;;6.17;;
4638;SDS011;2332;38.646;-9.154;2023-07-02T14:29:21;9.90;;;5.10;;
4638;SDS011;2332;38.646;-9.154;2023-07-02T14:31:47;16.90;;;5.30;;
4638;SDS011;2332;38.646;-9.154;2023-07-02T14:34:12;11.63;;;4.77;;
4638;SDS011;2332;38.646;-9.154;2023-07-02T14:36:37;11.20;;;4.90;;
4638;SDS011;2332;38.646;-9.154;2023-07-02T14:39:03;11.60;;;4.97;;
4638;SDS011;2332;38.646;-9.154;2023-07-02T14:41:28;11.53;;;5.00;;
4638;SDS011;2332;38.646;-9.154;2023-07-02T14:44:00;12.00;;;4.77;;
4638;SDS011;2332;38.646;-9.154;2023-07-02T14:46:25;8.97;;;5.40;;
4638;SDS011;2332;38.646;-9.154;2023-07-02T14:48:50;12.17;;;4.87;;